createdAt,value
2017-10-03T00:00:37.775Z,6.70
2017-10-03T00:01:58.324Z,5.70
2017-10-03T00:03:18.809Z,6.20
2017-10-03T00:04:39.102Z,6.80
2017-10-03T00:06:00.019Z,5.90
2017-10-03T00:07:20.368Z,7.30
2017-10-03T00:08:40.587Z,6.30
2017-10-03T00:10:00.923Z,6.20
2017-10-03T00:11:20.944Z,6.10
2017-10-03T00:12:41.191Z,7.20
2017-10-03T00:14:01.375Z,6.80
2017-10-03T00:15:22.284Z,6.90
2017-10-03T00:16:42.561Z,6.50
2017-10-03T00:18:03.493Z,7.50
2017-10-03T00:19:24.223Z,7.00
2017-10-03T00:20:44.176Z,7.00
2017-10-03T00:22:04.216Z,6.80
2017-10-03T00:23:24.802Z,7.40
2017-10-03T00:24:45.379Z,7.80
2017-10-03T00:26:05.364Z,7.30
2017-10-03T00:27:25.647Z,7.10
2017-10-03T00:28:45.603Z,7.60
2017-10-03T00:30:05.649Z,8.50
2017-10-03T00:31:25.973Z,7.80
2017-10-03T00:32:45.996Z,8.40
2017-10-03T00:34:06.500Z,8.10
2017-10-03T00:35:26.542Z,8.30
2017-10-03T00:36:47.305Z,8.30
2017-10-03T00:38:07.358Z,9.40
2017-10-03T00:39:27.432Z,10.20
2017-10-03T00:40:47.621Z,10.30
2017-10-03T00:42:07.596Z,10.40
2017-10-03T00:43:29.678Z,10.70
2017-10-03T00:44:50.216Z,12.10
2017-10-03T00:46:10.880Z,12.20
2017-10-03T00:47:31.168Z,12.40
2017-10-03T00:48:51.308Z,12.40
2017-10-03T00:50:11.885Z,10.80
2017-10-03T00:51:32.215Z,10.70
2017-10-03T00:52:52.507Z,11.40
2017-10-03T00:54:12.664Z,10.50
2017-10-03T00:55:32.718Z,11.50
2017-10-03T00:56:52.909Z,10.30
2017-10-03T00:58:13.088Z,10.40
2017-10-03T00:59:33.086Z,9.90
2017-10-03T01:00:53.615Z,11.00
2017-10-03T01:02:13.721Z,12.00
2017-10-03T01:03:33.971Z,11.70
2017-10-03T01:04:53.873Z,12.50
2017-10-03T01:06:14.108Z,12.10
2017-10-03T01:07:34.176Z,11.30
2017-10-03T01:08:54.017Z,11.10
2017-10-03T01:10:14.191Z,11.30
2017-10-03T01:11:34.713Z,12.00
2017-10-03T01:12:54.736Z,10.80
2017-10-03T01:14:14.923Z,10.70
2017-10-03T01:15:35.049Z,11.30
2017-10-03T01:16:55.700Z,10.50
2017-10-03T01:18:16.276Z,11.20
2017-10-03T01:19:36.406Z,9.90
2017-10-03T01:20:56.471Z,11.20
2017-10-03T01:22:17.009Z,10.30
2017-10-03T01:23:37.258Z,11.20
2017-10-03T01:24:57.993Z,11.00
2017-10-03T01:26:18.030Z,12.00
2017-10-03T01:27:38.019Z,10.80
2017-10-03T01:28:59.081Z,10.70
2017-10-03T01:30:19.348Z,10.80
2017-10-03T01:31:39.483Z,10.60
2017-10-03T01:32:59.785Z,11.40
2017-10-03T01:34:19.771Z,10.90
2017-10-03T01:35:39.950Z,13.50
2017-10-03T01:36:59.964Z,11.80
2017-10-03T01:38:20.097Z,12.20
2017-10-03T01:39:40.273Z,11.20
2017-10-03T01:41:00.262Z,12.60
2017-10-03T01:42:20.373Z,12.20
2017-10-03T01:43:40.747Z,12.90
2017-10-03T01:45:01.244Z,12.60
2017-10-03T01:46:21.117Z,12.40
2017-10-03T01:47:41.073Z,13.50
2017-10-03T01:49:01.221Z,14.50
2017-10-03T01:50:21.517Z,14.60
2017-10-03T01:51:41.383Z,14.70
2017-10-03T01:53:01.613Z,15.00
2017-10-03T01:54:22.227Z,13.80
2017-10-03T01:55:42.400Z,14.30
2017-10-03T01:57:02.392Z,14.70
2017-10-03T01:58:22.597Z,15.50
2017-10-03T01:59:43.056Z,15.00
2017-10-03T02:01:03.481Z,15.20
2017-10-03T02:02:23.570Z,15.20
2017-10-03T02:03:43.761Z,15.90
2017-10-03T02:05:04.913Z,15.70
2017-10-03T02:06:25.237Z,15.40
2017-10-03T02:07:45.983Z,17.00
2017-10-03T02:09:06.161Z,15.70
2017-10-03T02:10:26.340Z,16.60
2017-10-03T02:11:46.969Z,16.90
2017-10-03T02:13:07.178Z,17.20
2017-10-03T02:14:27.297Z,17.60
2017-10-03T02:15:47.569Z,16.20
2017-10-03T02:17:07.645Z,15.40
2017-10-03T02:18:28.506Z,15.80
2017-10-03T02:19:48.600Z,16.70
2017-10-03T02:21:08.813Z,16.90
2017-10-03T02:22:29.131Z,18.00
2017-10-03T02:23:49.067Z,17.00
2017-10-03T02:25:09.248Z,16.50
2017-10-03T02:26:29.524Z,16.50
2017-10-03T02:27:49.787Z,15.80
2017-10-03T02:29:09.882Z,16.60
2017-10-03T02:30:30.148Z,17.60
2017-10-03T02:31:50.389Z,19.10
2017-10-03T02:33:10.479Z,18.20
2017-10-03T02:34:30.691Z,16.50
2017-10-03T02:35:50.920Z,17.30
2017-10-03T02:37:11.526Z,17.00
2017-10-03T02:38:31.645Z,17.30
2017-10-03T02:39:52.516Z,18.30
2017-10-03T02:41:12.674Z,18.40
2017-10-03T02:42:33.095Z,18.50
2017-10-03T02:43:53.245Z,18.90
2017-10-03T02:45:13.218Z,17.20
2017-10-03T02:46:33.948Z,17.20
2017-10-03T02:47:54.049Z,16.10
2017-10-03T02:49:14.025Z,16.10
2017-10-03T02:50:34.377Z,17.50
2017-10-03T02:51:54.547Z,17.90
2017-10-03T02:53:14.542Z,15.90
2017-10-03T02:54:34.665Z,15.90
2017-10-03T02:55:54.723Z,14.70
2017-10-03T02:57:15.649Z,15.80
2017-10-03T02:58:36.333Z,14.70
2017-10-03T02:59:56.374Z,14.50
2017-10-03T03:01:16.609Z,13.20
2017-10-03T03:02:36.725Z,15.30
2017-10-03T03:03:57.732Z,14.10
2017-10-03T03:05:17.773Z,15.40
2017-10-03T03:06:37.921Z,15.80
2017-10-03T03:07:57.945Z,14.30
2017-10-03T03:09:18.260Z,15.20
2017-10-03T03:10:39.399Z,14.30
2017-10-03T03:11:59.307Z,13.90
2017-10-03T03:13:19.575Z,13.40
2017-10-03T03:14:39.653Z,14.00
2017-10-03T03:15:59.766Z,12.30
2017-10-03T03:17:20.144Z,12.50
2017-10-03T03:18:40.836Z,13.00
2017-10-03T03:20:01.057Z,12.00
2017-10-03T03:21:21.891Z,12.70
2017-10-03T03:22:42.481Z,12.00
2017-10-03T03:24:03.096Z,13.10
2017-10-03T03:25:23.459Z,12.70
2017-10-03T03:26:43.525Z,14.00
2017-10-03T03:28:03.605Z,11.30
2017-10-03T03:29:23.859Z,13.40
2017-10-03T03:30:43.898Z,12.00
2017-10-03T03:32:04.023Z,12.90
2017-10-03T03:33:24.191Z,13.10
2017-10-03T03:34:44.331Z,12.50
2017-10-03T03:36:04.839Z,13.00
2017-10-03T03:37:25.099Z,12.80
2017-10-03T03:38:45.975Z,13.60
2017-10-03T03:40:06.091Z,14.20
2017-10-03T03:41:26.578Z,14.90
2017-10-03T03:42:46.775Z,15.10
2017-10-03T03:44:06.883Z,15.60
2017-10-03T03:45:26.888Z,15.60
2017-10-03T03:46:47.055Z,17.00
2017-10-03T03:48:06.884Z,17.20
2017-10-03T03:49:27.041Z,17.00
2017-10-03T03:50:46.918Z,17.00
2017-10-03T03:52:07.350Z,16.50
2017-10-03T03:53:27.454Z,19.10
2017-10-03T03:54:47.717Z,16.70
2017-10-03T03:56:07.591Z,18.10
2017-10-03T03:57:27.604Z,16.40
2017-10-03T03:58:47.806Z,17.60
2017-10-03T04:00:07.926Z,18.10
2017-10-03T04:01:28.305Z,17.50
2017-10-03T04:02:48.530Z,18.70
2017-10-03T04:04:08.491Z,18.70
2017-10-03T04:05:28.669Z,18.00
2017-10-03T04:06:48.862Z,18.80
2017-10-03T04:08:09.033Z,18.30
2017-10-03T04:09:29.222Z,19.40
2017-10-03T04:10:49.089Z,18.30
2017-10-03T04:12:08.978Z,19.00
2017-10-03T04:13:29.555Z,19.30
2017-10-03T04:14:49.604Z,19.50
2017-10-03T04:16:10.252Z,20.80
2017-10-03T04:17:30.588Z,20.80
2017-10-03T04:18:50.503Z,19.80
2017-10-03T04:20:10.514Z,19.70
2017-10-03T04:21:30.502Z,20.50
2017-10-03T04:22:50.437Z,21.70
2017-10-03T04:24:10.713Z,19.80
2017-10-03T04:25:30.956Z,19.20
2017-10-03T04:26:51.764Z,18.30
2017-10-03T04:28:11.892Z,17.80
2017-10-03T04:29:32.415Z,18.20
2017-10-03T04:30:52.822Z,17.90
2017-10-03T04:32:12.801Z,17.60
2017-10-03T04:33:32.725Z,17.40
2017-10-03T04:34:52.925Z,16.20
2017-10-03T04:36:12.833Z,17.60
2017-10-03T04:37:33.106Z,16.70
2017-10-03T04:38:53.280Z,15.30
2017-10-03T04:40:13.776Z,17.00
2017-10-03T04:41:33.890Z,15.50
2017-10-03T04:42:53.999Z,15.00
2017-10-03T04:44:14.298Z,14.40
2017-10-03T04:45:34.462Z,14.70
2017-10-03T04:46:54.620Z,13.30
2017-10-03T04:48:15.651Z,12.40
2017-10-03T04:49:35.774Z,13.10
2017-10-03T04:50:56.150Z,12.50
2017-10-03T04:52:16.342Z,13.00
2017-10-03T04:53:36.538Z,12.00
2017-10-03T04:54:56.569Z,12.30
2017-10-03T04:56:17.062Z,11.60
2017-10-03T04:57:37.203Z,10.90
2017-10-03T04:58:57.317Z,9.70
2017-10-03T05:00:17.587Z,9.70
2017-10-03T05:01:37.712Z,10.00
2017-10-03T05:02:57.790Z,9.50
2017-10-03T05:04:17.949Z,9.10
2017-10-03T05:05:37.972Z,8.60
2017-10-03T05:06:58.385Z,7.50
2017-10-03T05:08:18.332Z,7.90
2017-10-03T05:09:39.165Z,7.70
2017-10-03T05:10:59.294Z,7.80
2017-10-03T05:12:19.904Z,7.30
2017-10-03T05:13:40.102Z,8.80
2017-10-03T05:15:00.161Z,7.30
2017-10-03T05:16:20.300Z,7.30
2017-10-03T05:17:40.576Z,6.20
2017-10-03T05:19:00.535Z,6.40
2017-10-03T05:20:20.927Z,7.40
2017-10-03T05:21:41.084Z,7.40
2017-10-03T05:23:01.184Z,7.80
2017-10-03T05:24:23.192Z,7.10
2017-10-03T05:25:43.103Z,7.40
2017-10-03T05:27:03.235Z,7.80
2017-10-03T05:28:23.393Z,7.70
2017-10-03T05:29:43.445Z,8.40
2017-10-03T05:31:03.686Z,7.50
2017-10-03T05:32:23.838Z,8.40
2017-10-03T05:33:45.032Z,7.90
2017-10-03T05:35:05.222Z,7.90
2017-10-03T05:36:25.303Z,7.50
2017-10-03T05:37:45.167Z,8.10
2017-10-03T05:39:06.454Z,8.00
2017-10-03T05:40:26.653Z,7.90
2017-10-03T05:41:46.885Z,7.20
2017-10-03T05:43:07.142Z,7.50
2017-10-03T05:44:27.473Z,7.50
2017-10-03T05:45:47.688Z,8.00
2017-10-03T05:47:07.989Z,7.90
2017-10-03T05:48:28.275Z,8.10
2017-10-03T05:49:48.900Z,7.70
2017-10-03T05:51:09.324Z,7.10
2017-10-03T05:52:29.527Z,7.20
2017-10-03T05:53:49.652Z,7.50
2017-10-03T05:55:09.948Z,7.60
2017-10-03T05:56:30.365Z,7.90
2017-10-03T05:57:50.998Z,8.20
2017-10-03T05:59:11.260Z,7.50
2017-10-03T06:00:32.302Z,7.50
2017-10-03T06:01:53.325Z,7.50
2017-10-03T06:03:13.345Z,8.30
2017-10-03T06:04:33.519Z,8.00
2017-10-03T06:05:53.804Z,7.60
2017-10-03T06:07:14.050Z,7.50
2017-10-03T06:08:34.284Z,8.10
2017-10-03T06:09:54.400Z,7.70
2017-10-03T06:11:14.977Z,6.80
2017-10-03T06:12:35.084Z,7.10
2017-10-03T06:13:55.299Z,8.70
2017-10-03T06:15:15.546Z,6.80
2017-10-03T06:16:35.862Z,7.30
2017-10-03T06:17:56.333Z,6.90
2017-10-03T06:19:16.702Z,7.10
2017-10-03T06:20:37.013Z,6.90
2017-10-03T06:21:57.225Z,5.50
2017-10-03T06:23:17.530Z,5.60
2017-10-03T06:24:37.636Z,6.40
2017-10-03T06:25:57.776Z,5.90
2017-10-03T06:27:18.525Z,5.50
2017-10-03T06:28:38.887Z,7.00
2017-10-03T06:29:59.650Z,6.30
2017-10-03T06:31:21.219Z,5.60
2017-10-03T06:32:41.616Z,5.40
2017-10-03T06:34:02.950Z,4.90
2017-10-03T06:35:23.507Z,6.10
2017-10-03T06:36:43.995Z,5.40
2017-10-03T06:38:05.618Z,5.60
2017-10-03T06:39:26.172Z,6.00
2017-10-03T06:40:46.577Z,5.90
2017-10-03T06:45:59.374Z,4.90
2017-10-03T06:47:19.836Z,4.70
2017-10-03T06:48:40.314Z,4.30
2017-10-03T06:50:00.772Z,5.40
2017-10-03T06:51:21.573Z,4.20
2017-10-03T06:52:42.026Z,5.10
2017-10-03T06:54:02.974Z,4.80
2017-10-03T06:55:32.674Z,5.00
2017-10-03T06:56:53.180Z,0.00
2017-10-03T06:58:13.774Z,4.40
2017-10-03T06:59:33.941Z,5.00
2017-10-03T07:00:54.883Z,4.80
2017-10-03T07:02:15.521Z,5.10
2017-10-03T07:03:36.459Z,4.60
2017-10-03T07:04:56.930Z,4.60
2017-10-03T07:06:17.456Z,4.80
2017-10-03T07:07:37.713Z,4.20
2017-10-03T07:08:58.229Z,4.30
2017-10-03T07:10:18.689Z,5.40
2017-10-03T07:11:39.012Z,4.90
2017-10-03T07:12:59.464Z,4.00
2017-10-03T07:14:20.070Z,4.70
2017-10-03T07:15:40.528Z,4.50
2017-10-03T07:17:01.599Z,4.50
2017-10-03T07:18:22.448Z,5.40
2017-10-03T07:19:43.018Z,5.30
2017-10-03T07:21:03.457Z,4.80
2017-10-03T07:26:03.224Z,4.60
2017-10-03T07:27:23.631Z,5.00
2017-10-03T07:28:45.150Z,3.90
2017-10-03T07:30:05.551Z,5.10
2017-10-03T07:31:26.227Z,4.10
2017-10-03T07:32:46.994Z,4.60
2017-10-03T07:34:07.676Z,4.60
2017-10-03T07:35:28.380Z,4.70
2017-10-03T07:36:48.819Z,4.70
2017-10-03T07:38:09.204Z,4.40
2017-10-03T07:39:29.684Z,4.30
2017-10-03T07:40:49.968Z,4.80
2017-10-03T07:42:10.699Z,4.20
2017-10-03T07:43:31.237Z,4.30
2017-10-03T07:44:51.580Z,4.70
2017-10-03T07:46:11.811Z,4.40
2017-10-03T07:47:32.741Z,3.80
2017-10-03T07:48:53.171Z,3.70
2017-10-03T07:50:14.423Z,4.10
2017-10-03T07:51:34.757Z,3.90
2017-10-03T07:52:55.464Z,3.80
2017-10-03T07:54:15.757Z,4.50
2017-10-03T07:55:36.353Z,4.80
2017-10-03T07:56:56.860Z,4.30
2017-10-03T07:58:17.619Z,3.50
2017-10-03T07:59:39.400Z,3.80
2017-10-03T08:01:00.101Z,4.80
2017-10-03T08:02:21.473Z,4.10
2017-10-03T08:03:42.859Z,4.00
2017-10-03T08:05:03.289Z,4.40
2017-10-03T08:06:23.803Z,4.30
2017-10-03T08:07:44.985Z,3.80
2017-10-03T08:09:05.804Z,4.10
2017-10-03T08:10:27.097Z,3.70
2017-10-03T08:11:47.511Z,4.60
2017-10-03T08:13:08.946Z,3.60
2017-10-03T08:14:32.096Z,4.60
2017-10-03T08:15:53.521Z,3.80
2017-10-03T08:17:14.124Z,4.50
2017-10-03T08:18:34.629Z,4.40
2017-10-03T08:19:56.168Z,3.90
2017-10-03T08:21:16.969Z,3.80
2017-10-03T08:22:37.686Z,4.60
2017-10-03T08:23:58.153Z,3.90
2017-10-03T08:25:19.060Z,3.60
2017-10-03T08:26:39.509Z,3.90
2017-10-03T08:28:00.010Z,5.00
2017-10-03T08:29:21.764Z,4.70
2017-10-03T08:30:42.424Z,4.90
2017-10-03T08:32:02.948Z,4.40
2017-10-03T08:32:56.979Z,4.30
2017-10-03T08:34:21.486Z,3.60
2017-10-03T08:45:25.664Z,3.80
2017-10-03T08:46:46.183Z,4.40
2017-10-03T08:48:06.702Z,4.40
2017-10-03T08:49:27.271Z,4.30
2017-10-03T08:50:49.332Z,3.40
2017-10-03T08:52:09.713Z,3.70
2017-10-03T08:53:30.905Z,3.80
2017-10-03T08:54:51.671Z,4.10
2017-10-03T08:56:12.648Z,3.10
2017-10-03T08:59:01.550Z,3.70
2017-10-03T09:00:22.165Z,3.80
2017-10-03T09:01:42.675Z,3.00
2017-10-03T09:03:03.185Z,4.10
2017-10-03T09:04:23.720Z,3.20
2017-10-03T09:05:44.161Z,3.50
2017-10-03T09:07:05.089Z,3.90
2017-10-03T09:08:26.923Z,3.90
2017-10-03T09:09:51.996Z,4.30
2017-10-03T09:11:12.777Z,3.40
2017-10-03T09:12:33.831Z,4.20
2017-10-03T09:13:54.536Z,5.40
2017-10-03T09:15:15.216Z,4.10
2017-10-03T09:16:35.680Z,3.60
2017-10-03T09:17:56.379Z,3.50
2017-10-03T09:19:17.011Z,3.90
2017-10-03T09:20:37.534Z,3.40
2017-10-03T09:21:58.998Z,3.00
2017-10-03T09:23:20.787Z,2.90
2017-10-03T09:24:41.476Z,3.10
2017-10-03T09:26:02.078Z,3.30
2017-10-03T09:27:22.610Z,3.40
2017-10-03T09:28:43.370Z,2.90
2017-10-03T09:30:04.146Z,2.80
2017-10-03T09:31:25.987Z,3.20
2017-10-03T09:32:47.524Z,3.40
2017-10-03T09:34:08.138Z,3.40
2017-10-03T09:35:29.467Z,2.70
2017-10-03T09:36:50.403Z,2.90
2017-10-03T09:38:11.031Z,3.00
2017-10-03T09:39:32.019Z,3.30
2017-10-03T09:40:53.219Z,3.20
2017-10-03T09:42:13.764Z,3.20
2017-10-03T09:43:34.744Z,3.20
2017-10-03T09:44:55.420Z,2.90
2017-10-03T09:46:16.218Z,3.40
2017-10-03T09:47:36.988Z,3.20
2017-10-03T09:48:57.468Z,2.80
2017-10-03T09:50:18.985Z,3.20
2017-10-03T09:51:39.577Z,3.50
2017-10-03T09:53:00.012Z,3.70
2017-10-03T09:54:20.684Z,3.30
2017-10-03T09:55:42.033Z,4.00
2017-10-03T09:57:02.598Z,3.00
2017-10-03T09:58:23.939Z,3.20
2017-10-03T09:59:44.708Z,3.40
2017-10-03T10:01:05.618Z,2.80
2017-10-03T10:02:26.160Z,3.10
2017-10-03T10:03:46.567Z,2.70
2017-10-03T10:05:07.071Z,2.90
2017-10-03T10:06:28.155Z,4.20
2017-10-03T10:07:48.859Z,3.00
2017-10-03T10:09:09.323Z,2.80
2017-10-03T10:16:18.452Z,3.30
2017-10-03T10:17:39.096Z,2.90
2017-10-03T10:19:00.303Z,3.30
2017-10-03T10:20:23.722Z,3.00
2017-10-03T10:21:46.482Z,3.10
2017-10-03T10:23:15.814Z,2.80
2017-10-03T10:24:37.069Z,2.70
2017-10-03T10:25:58.350Z,2.90
2017-10-03T10:27:21.391Z,2.80
2017-10-03T10:28:41.862Z,3.70
2017-10-03T10:30:02.459Z,2.80
2017-10-03T10:31:23.820Z,2.60
2017-10-03T10:32:44.291Z,2.60
2017-10-03T10:34:04.931Z,2.50
2017-10-03T10:35:25.779Z,2.20
2017-10-03T10:36:46.128Z,2.70
2017-10-03T10:38:06.904Z,2.40
2017-10-03T10:39:27.350Z,2.50
2017-10-03T10:40:48.316Z,2.40
2017-10-03T10:42:08.852Z,2.60
2017-10-03T10:43:29.963Z,2.40
2017-10-03T10:44:50.540Z,2.50
2017-10-03T10:46:11.360Z,2.50
2017-10-03T10:47:33.188Z,2.00
2017-10-03T10:48:54.108Z,2.10
2017-10-03T10:50:17.936Z,2.50
2017-10-03T10:51:38.481Z,1.90
2017-10-03T10:52:59.216Z,2.00
2017-10-03T10:54:20.394Z,2.70
2017-10-03T10:55:41.831Z,1.90
2017-10-03T10:57:02.418Z,2.10
2017-10-03T10:58:23.082Z,2.10
2017-10-03T10:59:44.329Z,2.20
2017-10-03T11:01:04.979Z,4.00
2017-10-03T11:02:25.775Z,4.60
2017-10-03T11:03:46.845Z,3.00
2017-10-03T11:05:07.889Z,3.20
2017-10-03T11:06:28.685Z,3.00
2017-10-03T11:15:01.718Z,5.10
2017-10-03T11:16:22.971Z,2.70
2017-10-03T11:17:43.771Z,3.20
2017-10-03T11:19:04.956Z,3.00
2017-10-03T11:20:26.375Z,2.60
2017-10-03T11:21:47.174Z,2.60
2017-10-03T11:23:09.004Z,3.20
2017-10-03T11:24:29.664Z,3.00
2017-10-03T11:25:51.259Z,2.70
2017-10-03T11:27:13.343Z,2.90
2017-10-03T11:28:33.728Z,2.70
2017-10-03T11:29:54.622Z,2.70
2017-10-03T11:31:16.693Z,2.40
2017-10-03T11:32:37.443Z,2.30
2017-10-03T11:33:58.109Z,2.40
2017-10-03T11:35:18.789Z,2.40
2017-10-03T11:36:39.772Z,2.30
2017-10-03T11:38:00.491Z,2.60
2017-10-03T11:39:22.455Z,2.60
2017-10-03T11:40:43.005Z,2.40
2017-10-03T11:42:05.645Z,2.50
2017-10-03T11:43:26.260Z,2.40
2017-10-03T11:44:46.687Z,2.30
2017-10-03T11:46:08.784Z,2.40
2017-10-03T11:47:29.431Z,2.60
2017-10-03T11:48:50.517Z,2.70
2017-10-03T11:50:11.270Z,2.40
2017-10-03T11:51:32.344Z,2.90
2017-10-03T11:52:52.857Z,2.30
2017-10-03T11:54:13.743Z,2.90
2017-10-03T11:55:35.044Z,3.10
2017-10-03T11:56:55.964Z,2.50
2017-10-03T11:58:17.234Z,2.40
2017-10-03T11:59:38.404Z,2.30
2017-10-03T12:00:59.198Z,2.90
2017-10-03T12:02:19.916Z,2.50
2017-10-03T12:03:41.031Z,2.30
2017-10-03T12:05:01.861Z,2.50
2017-10-03T12:06:24.734Z,2.60
2017-10-03T12:07:45.657Z,2.70
2017-10-03T12:09:07.217Z,2.40
2017-10-03T12:10:27.807Z,2.60
2017-10-03T12:11:48.516Z,1.80
2017-10-03T12:13:09.723Z,1.80
2017-10-03T12:14:31.015Z,2.30
2017-10-03T12:15:52.239Z,2.60
2017-10-03T12:17:12.931Z,3.30
2017-10-03T12:18:34.060Z,3.20
2017-10-03T12:19:54.734Z,3.60
2017-10-03T12:21:15.302Z,2.50
2017-10-03T12:22:37.025Z,2.40
2017-10-03T12:23:57.737Z,2.60
2017-10-03T12:25:18.580Z,2.60
2017-10-03T12:26:39.198Z,2.20
2017-10-03T12:27:59.817Z,2.40
2017-10-03T12:29:20.601Z,2.50
2017-10-03T12:30:41.857Z,2.20
2017-10-03T12:32:02.508Z,2.50
2017-10-03T12:33:23.261Z,2.00
2017-10-03T12:34:43.887Z,2.50
2017-10-03T12:36:04.649Z,2.30
2017-10-03T12:37:25.533Z,2.20
2017-10-03T12:38:46.238Z,2.30
2017-10-03T12:40:06.907Z,2.20
2017-10-03T12:41:27.696Z,2.10
2017-10-03T12:42:48.886Z,2.50
2017-10-03T12:44:09.422Z,2.20
2017-10-03T12:45:30.905Z,2.70
2017-10-03T12:46:51.604Z,2.60
2017-10-03T12:48:12.343Z,2.10
2017-10-03T12:49:33.497Z,1.80
2017-10-03T12:50:53.948Z,2.00
2017-10-03T12:52:15.448Z,2.20
2017-10-03T12:53:35.998Z,2.20
2017-10-03T12:54:57.257Z,2.30
2017-10-03T12:56:18.823Z,2.40
2017-10-03T12:57:40.979Z,2.00
2017-10-03T12:59:01.639Z,2.20
2017-10-03T13:00:22.250Z,1.80
2017-10-03T13:01:42.885Z,2.00
2017-10-03T13:03:04.677Z,2.30
2017-10-03T13:04:25.447Z,1.80
2017-10-03T13:05:46.085Z,2.00
2017-10-03T13:07:06.939Z,2.20
2017-10-03T13:08:27.697Z,2.30
2017-10-03T13:09:48.407Z,2.00
2017-10-03T13:11:08.975Z,2.40
2017-10-03T13:12:30.368Z,2.50
2017-10-03T13:13:51.203Z,2.00
2017-10-03T13:15:12.338Z,1.70
2017-10-03T13:16:34.173Z,2.90
2017-10-03T13:17:56.788Z,2.30
2017-10-03T13:19:17.771Z,2.20
2017-10-03T13:25:58.391Z,2.40
2017-10-03T13:27:19.086Z,2.20
2017-10-03T13:28:40.249Z,2.10
2017-10-03T13:30:01.634Z,2.50
2017-10-03T13:31:22.187Z,1.90
2017-10-03T13:32:43.394Z,2.10
2017-10-03T13:34:04.028Z,1.60
2017-10-03T13:35:24.608Z,2.50
2017-10-03T13:36:47.221Z,1.90
2017-10-03T13:38:07.968Z,2.20
2017-10-03T13:39:29.904Z,1.60
2017-10-03T13:40:51.342Z,1.90
2017-10-03T13:42:12.608Z,2.10
2017-10-03T13:43:33.117Z,2.20
2017-10-03T13:44:53.781Z,2.10
2017-10-03T13:46:14.558Z,2.60
2017-10-03T13:47:35.210Z,2.60
2017-10-03T13:48:56.340Z,2.30
2017-10-03T13:50:17.580Z,2.60
2017-10-03T13:51:38.275Z,1.80
2017-10-03T13:52:59.687Z,1.70
2017-10-03T13:54:20.437Z,2.10
2017-10-03T13:55:42.166Z,2.00
2017-10-03T13:57:02.714Z,2.00
2017-10-03T13:58:24.518Z,2.00
2017-10-03T13:59:45.888Z,2.10
2017-10-03T14:01:07.524Z,2.10
2017-10-03T14:02:30.015Z,1.70
2017-10-03T14:03:51.802Z,4.50
2017-10-03T14:05:12.471Z,3.40
2017-10-03T14:06:33.457Z,3.70
2017-10-03T14:07:54.300Z,3.30
2017-10-03T14:09:14.935Z,2.60
2017-10-03T14:10:36.254Z,2.60
2017-10-03T14:11:57.049Z,2.30
2017-10-03T14:13:17.642Z,1.90
2017-10-03T14:14:38.296Z,1.80
2017-10-03T14:16:00.355Z,1.80
2017-10-03T14:17:21.965Z,2.30
2017-10-03T14:18:42.702Z,1.70
2017-10-03T14:20:03.720Z,1.90
2017-10-03T14:21:25.616Z,2.20
2017-10-03T14:22:47.809Z,2.20
2017-10-03T14:24:08.222Z,1.70
2017-10-03T14:25:29.113Z,1.70
2017-10-03T14:26:50.071Z,2.10
2017-10-03T14:28:10.742Z,1.80
2017-10-03T14:29:31.209Z,2.60
2017-10-03T14:30:51.741Z,2.00
2017-10-03T14:32:13.125Z,2.70
2017-10-03T14:33:33.500Z,2.20
2017-10-03T14:34:53.841Z,1.70
2017-10-03T14:36:15.067Z,2.60
2017-10-03T14:37:35.750Z,1.90
2017-10-03T14:38:56.937Z,2.00
2017-10-03T14:40:18.334Z,1.70
2017-10-03T14:41:39.048Z,2.00
2017-10-03T14:42:59.626Z,2.20
2017-10-03T14:44:20.359Z,2.50
2017-10-03T14:45:41.022Z,1.80
2017-10-03T14:47:02.052Z,2.10
2017-10-03T14:48:22.753Z,1.70
2017-10-03T14:49:44.421Z,2.00
2017-10-03T14:51:04.995Z,2.00
2017-10-03T14:52:26.055Z,3.00
2017-10-03T14:53:46.676Z,2.00
2017-10-03T14:55:07.565Z,1.70
2017-10-03T14:56:28.269Z,1.70
2017-10-03T14:57:50.410Z,2.30
2017-10-03T14:59:11.904Z,2.10
2017-10-03T15:00:33.312Z,2.30
2017-10-03T15:01:54.475Z,2.00
2017-10-03T15:03:15.296Z,2.30
2017-10-03T15:04:35.937Z,2.60
2017-10-03T15:05:56.482Z,2.30
2017-10-03T15:07:17.376Z,2.40
2017-10-03T15:08:38.109Z,3.00
2017-10-03T15:09:59.384Z,4.10
2017-10-03T15:11:20.204Z,3.00
2017-10-03T15:12:40.784Z,2.20
2017-10-03T15:14:01.459Z,2.00
2017-10-03T15:15:22.107Z,2.50
2017-10-03T15:16:42.898Z,2.80
2017-10-03T15:18:03.744Z,2.70
2017-10-03T15:19:24.511Z,2.00
2017-10-03T15:20:46.505Z,2.00
2017-10-03T15:22:07.668Z,2.10
2017-10-03T15:23:28.498Z,2.50
2017-10-03T15:24:50.523Z,2.20
2017-10-03T15:26:11.424Z,2.40
2017-10-03T15:27:32.104Z,1.90
2017-10-03T15:28:52.626Z,2.60
2017-10-03T15:30:13.459Z,2.10
2017-10-03T15:31:34.559Z,2.40
2017-10-03T15:32:55.247Z,2.50
2017-10-03T15:34:16.489Z,1.90
2017-10-03T15:35:38.688Z,2.60
2017-10-03T15:36:59.723Z,2.40
2017-10-03T15:38:20.649Z,2.10
2017-10-03T15:39:42.262Z,2.30
2017-10-03T15:41:03.154Z,2.70
2017-10-03T15:42:23.756Z,3.00
2017-10-03T15:43:44.835Z,2.60
2017-10-03T15:45:05.304Z,4.00
2017-10-03T15:46:26.297Z,3.60
2017-10-03T15:47:46.794Z,3.20
2017-10-03T15:49:07.297Z,3.10
2017-10-03T15:50:28.517Z,2.90
2017-10-03T15:51:50.361Z,2.30
2017-10-03T15:53:11.099Z,2.00
2017-10-03T15:54:32.937Z,2.60
2017-10-03T15:55:54.888Z,2.10
2017-10-03T15:57:15.726Z,2.30
2017-10-03T15:58:36.206Z,2.50
2017-10-03T15:59:57.533Z,2.20
2017-10-03T16:01:21.477Z,2.50
2017-10-03T16:02:42.711Z,2.50
2017-10-03T16:04:04.044Z,2.30
2017-10-03T16:05:24.579Z,4.50
2017-10-03T16:06:45.988Z,4.30
2017-10-03T16:08:06.949Z,3.00
2017-10-03T16:09:28.365Z,2.70
2017-10-03T16:10:48.852Z,2.40
2017-10-03T16:12:10.658Z,2.80
2017-10-03T16:13:32.198Z,2.60
2017-10-03T16:14:53.025Z,2.60
2017-10-03T16:16:14.946Z,3.00
2017-10-03T16:17:35.565Z,2.30
2017-10-03T16:18:56.667Z,2.80
2017-10-03T16:20:18.233Z,3.30
2017-10-03T16:21:38.743Z,3.00
2017-10-03T16:22:59.332Z,2.40
2017-10-03T16:24:19.988Z,3.00
2017-10-03T16:25:40.546Z,2.50
2017-10-03T16:27:02.109Z,2.60
2017-10-03T16:28:22.678Z,2.70
2017-10-03T16:29:43.807Z,3.90
2017-10-03T16:31:05.283Z,2.70
2017-10-03T16:32:25.876Z,3.40
2017-10-03T16:33:46.347Z,2.90
2017-10-03T16:35:07.257Z,2.70
2017-10-03T16:36:28.206Z,2.50
2017-10-03T16:37:50.437Z,4.60
2017-10-03T16:39:11.056Z,3.10
2017-10-03T16:40:31.645Z,3.30
2017-10-03T16:41:52.949Z,2.60
2017-10-03T16:43:13.554Z,3.10
2017-10-03T16:44:34.804Z,3.60
2017-10-03T16:45:55.531Z,3.20
2017-10-03T16:47:16.817Z,2.70
2017-10-03T16:48:37.164Z,2.20
2017-10-03T16:49:57.656Z,2.60
2017-10-03T16:51:18.651Z,3.00
2017-10-03T16:52:39.161Z,2.50
2017-10-03T16:54:00.329Z,2.60
2017-10-03T16:55:21.394Z,2.20
2017-10-03T16:56:42.775Z,2.50
2017-10-03T16:58:03.380Z,2.70
2017-10-03T16:59:26.937Z,2.70
2017-10-03T17:00:50.355Z,2.40
2017-10-03T17:02:11.214Z,2.20
2017-10-03T17:03:32.910Z,2.60
2017-10-03T17:04:53.385Z,2.70
2017-10-03T17:06:14.032Z,2.50
2017-10-03T17:07:35.576Z,2.30
2017-10-03T17:08:57.052Z,3.80
2017-10-03T17:10:17.648Z,3.10
2017-10-03T17:11:38.401Z,3.60
2017-10-03T17:13:00.803Z,2.90
2017-10-03T17:14:22.035Z,3.30
2017-10-03T17:15:42.628Z,2.90
2017-10-03T17:17:03.553Z,3.40
2017-10-03T17:18:24.284Z,2.50
2017-10-03T17:19:46.509Z,3.30
2017-10-03T17:21:07.499Z,2.80
2017-10-03T17:22:30.022Z,2.50
2017-10-03T17:23:50.884Z,2.60
2017-10-03T17:25:11.345Z,3.40
2017-10-03T17:26:32.361Z,3.20
2017-10-03T17:27:52.845Z,3.40
2017-10-03T17:29:13.521Z,3.20
2017-10-03T17:30:34.066Z,3.40
2017-10-03T17:31:54.643Z,2.70
2017-10-03T17:34:42.485Z,3.10
2017-10-03T17:36:03.165Z,4.30
2017-10-03T17:37:25.201Z,3.10
2017-10-03T17:38:47.585Z,2.60
2017-10-03T17:40:09.171Z,2.50
2017-10-03T17:41:30.817Z,3.30
2017-10-03T17:42:51.416Z,3.60
2017-10-03T17:44:12.269Z,3.40
2017-10-03T17:45:33.984Z,3.20
2017-10-03T17:46:55.334Z,2.60
2017-10-03T17:48:16.089Z,3.50
2017-10-03T17:49:37.620Z,2.60
2017-10-03T17:50:59.458Z,2.90
2017-10-03T17:52:20.105Z,3.10
2017-10-03T17:53:40.940Z,2.60
2017-10-03T17:55:02.549Z,2.90
2017-10-03T17:56:23.250Z,2.60
2017-10-03T17:57:46.168Z,3.50
2017-10-03T17:59:08.097Z,3.00
2017-10-03T18:00:30.850Z,3.10
2017-10-03T18:01:52.531Z,2.40
2017-10-03T18:03:13.310Z,3.00
2017-10-03T18:04:35.860Z,3.00
2017-10-03T18:05:56.438Z,2.90
2017-10-03T18:07:17.361Z,2.90
2017-10-03T18:08:37.973Z,2.90
2017-10-03T18:09:58.844Z,2.80
2017-10-03T18:11:20.724Z,3.30
2017-10-03T18:12:41.370Z,2.70
2017-10-03T18:14:01.897Z,2.70
2017-10-03T18:15:24.301Z,2.50
2017-10-03T18:16:45.704Z,3.00
2017-10-03T18:18:06.297Z,2.90
2017-10-03T18:19:27.715Z,2.90
2017-10-03T18:20:48.340Z,3.30
2017-10-03T18:22:10.655Z,2.90
2017-10-03T18:23:31.219Z,2.20
2017-10-03T18:24:53.098Z,3.30